< < Back
Terminal Aerodrome Forecast


Current Version              Previous Versions:   1  2  3  4  5  6  7  8  9  

Terminal Aerodrome Forecast

843
FTUS42 KCAE 291739
TAFCAE
TAF
KCAE 291739Z 2918/3018 12006KT P6SM SCT040
     FM291900 12006KT P6SM VCSH BKN050 BKN150
     FM300200 VRB03KT P6SM SCT050 BKN150=

Latest METAR

475
SAUS80 KWBC 300200
MTRCAE
METAR KCAE 300156Z 27003KT 10SM BKN070 31/22 A2994 RMK AO2 SLP135
T03060222


USA.gov is the U.S. government's official web portal to all federal, state and local government web resources and services.